sensor_id;sensor_type;location;lat;lon;timestamp;P1;durP1;ratioP1;P2;durP2;ratioP2
6537;SDS011;3302;52.508;13.454;2023-06-10T00:01:30;9.27;;;4.53;;
6537;SDS011;3302;52.508;13.454;2023-06-10T00:03:56;13.37;;;4.20;;
6537;SDS011;3302;52.508;13.454;2023-06-10T00:06:22;6.77;;;4.30;;
6537;SDS011;3302;52.508;13.454;2023-06-10T00:08:50;9.53;;;4.13;;
6537;SDS011;3302;52.508;13.454;2023-06-10T00:11:16;6.80;;;4.00;;
6537;SDS011;3302;52.508;13.454;2023-06-10T00:13:42;6.17;;;3.90;;
6537;SDS011;3302;52.508;13.454;2023-06-10T00:16:08;7.53;;;3.77;;
6537;SDS011;3302;52.508;13.454;2023-06-10T00:18:34;7.13;;;3.50;;
6537;SDS011;3302;52.508;13.454;2023-06-10T00:21:02;6.37;;;3.67;;
6537;SDS011;3302;52.508;13.454;2023-06-10T00:23:30;5.80;;;3.70;;
6537;SDS011;3302;52.508;13.454;2023-06-10T00:25:59;7.53;;;4.00;;
6537;SDS011;3302;52.508;13.454;2023-06-10T00:28:25;8.13;;;3.77;;
6537;SDS011;3302;52.508;13.454;2023-06-10T00:30:51;8.90;;;4.03;;
6537;SDS011;3302;52.508;13.454;2023-06-10T00:33:17;6.20;;;3.83;;
6537;SDS011;3302;52.508;13.454;2023-06-10T00:35:42;7.07;;;3.77;;
6537;SDS011;3302;52.508;13.454;2023-06-10T00:38:08;7.20;;;3.93;;
6537;SDS011;3302;52.508;13.454;2023-06-10T00:40:40;6.00;;;3.83;;
6537;SDS011;3302;52.508;13.454;2023-06-10T00:43:06;7.07;;;3.70;;
6537;SDS011;3302;52.508;13.454;2023-06-10T00:45:33;8.03;;;4.37;;
6537;SDS011;3302;52.508;13.454;2023-06-10T00:47:59;6.47;;;3.70;;
6537;SDS011;3302;52.508;13.454;2023-06-10T00:50:26;7.83;;;3.63;;
6537;SDS011;3302;52.508;13.454;2023-06-10T00:52:53;8.83;;;3.90;;
6537;SDS011;3302;52.508;13.454;2023-06-10T00:55:19;6.00;;;3.93;;
6537;SDS011;3302;52.508;13.454;2023-06-10T00:57:45;7.07;;;4.20;;
6537;SDS011;3302;52.508;13.454;2023-06-10T01:00:13;8.00;;;4.10;;
6537;SDS011;3302;52.508;13.454;2023-06-10T01:02:40;10.07;;;3.90;;
6537;SDS011;3302;52.508;13.454;2023-06-10T01:05:07;8.57;;;3.63;;
6537;SDS011;3302;52.508;13.454;2023-06-10T01:10:28;5.67;;;4.10;;
6537;SDS011;3302;52.508;13.454;2023-06-10T01:13:07;9.67;;;3.80;;
6537;SDS011;3302;52.508;13.454;2023-06-10T01:15:39;5.93;;;3.60;;
6537;SDS011;3302;52.508;13.454;2023-06-10T01:18:06;8.97;;;3.77;;
6537;SDS011;3302;52.508;13.454;2023-06-10T01:20:40;7.77;;;4.20;;
6537;SDS011;3302;52.508;13.454;2023-06-10T01:23:08;6.70;;;3.80;;
6537;SDS011;3302;52.508;13.454;2023-06-10T01:25:39;7.90;;;4.10;;
6537;SDS011;3302;52.508;13.454;2023-06-10T01:30:48;6.60;;;3.80;;
6537;SDS011;3302;52.508;13.454;2023-06-10T01:33:21;9.10;;;3.77;;
6537;SDS011;3302;52.508;13.454;2023-06-10T01:35:53;5.60;;;3.40;;
6537;SDS011;3302;52.508;13.454;2023-06-10T01:38:22;6.80;;;4.40;;
6537;SDS011;3302;52.508;13.454;2023-06-10T01:40:50;6.93;;;3.90;;
6537;SDS011;3302;52.508;13.454;2023-06-10T01:43:20;7.50;;;3.50;;
6537;SDS011;3302;52.508;13.454;2023-06-10T01:45:46;6.53;;;3.70;;
6537;SDS011;3302;52.508;13.454;2023-06-10T01:48:12;7.77;;;3.93;;
6537;SDS011;3302;52.508;13.454;2023-06-10T01:50:38;5.90;;;3.97;;
6537;SDS011;3302;52.508;13.454;2023-06-10T01:53:04;7.17;;;3.77;;
6537;SDS011;3302;52.508;13.454;2023-06-10T01:55:30;8.83;;;4.27;;
6537;SDS011;3302;52.508;13.454;2023-06-10T01:57:56;6.43;;;3.70;;
6537;SDS011;3302;52.508;13.454;2023-06-10T02:00:22;7.30;;;3.77;;
6537;SDS011;3302;52.508;13.454;2023-06-10T02:02:48;8.90;;;4.10;;
6537;SDS011;3302;52.508;13.454;2023-06-10T02:05:13;7.57;;;3.80;;
6537;SDS011;3302;52.508;13.454;2023-06-10T02:07:39;7.97;;;4.03;;
6537;SDS011;3302;52.508;13.454;2023-06-10T02:10:06;6.73;;;3.97;;
6537;SDS011;3302;52.508;13.454;2023-06-10T02:12:32;7.17;;;4.20;;
6537;SDS011;3302;52.508;13.454;2023-06-10T02:14:58;8.13;;;4.43;;
6537;SDS011;3302;52.508;13.454;2023-06-10T02:17:23;7.03;;;3.70;;
6537;SDS011;3302;52.508;13.454;2023-06-10T02:19:49;6.47;;;4.00;;
6537;SDS011;3302;52.508;13.454;2023-06-10T02:22:20;7.10;;;4.13;;
6537;SDS011;3302;52.508;13.454;2023-06-10T02:24:46;8.07;;;4.00;;
6537;SDS011;3302;52.508;13.454;2023-06-10T02:27:12;7.60;;;3.90;;
6537;SDS011;3302;52.508;13.454;2023-06-10T02:29:38;7.83;;;4.33;;
6537;SDS011;3302;52.508;13.454;2023-06-10T02:32:04;9.70;;;4.30;;
6537;SDS011;3302;52.508;13.454;2023-06-10T02:34:30;9.00;;;4.40;;
6537;SDS011;3302;52.508;13.454;2023-06-10T02:36:56;9.03;;;4.70;;
6537;SDS011;3302;52.508;13.454;2023-06-10T02:39:22;9.17;;;4.10;;
6537;SDS011;3302;52.508;13.454;2023-06-10T02:41:48;7.17;;;3.83;;
6537;SDS011;3302;52.508;13.454;2023-06-10T02:44:13;8.13;;;4.33;;
6537;SDS011;3302;52.508;13.454;2023-06-10T02:46:39;7.10;;;3.90;;
6537;SDS011;3302;52.508;13.454;2023-06-10T02:49:05;9.43;;;4.30;;
6537;SDS011;3302;52.508;13.454;2023-06-10T02:51:30;10.37;;;4.73;;
6537;SDS011;3302;52.508;13.454;2023-06-10T02:53:56;7.17;;;3.97;;
6537;SDS011;3302;52.508;13.454;2023-06-10T02:56:22;9.27;;;4.13;;
6537;SDS011;3302;52.508;13.454;2023-06-10T02:58:48;7.43;;;4.20;;
6537;SDS011;3302;52.508;13.454;2023-06-10T03:01:14;11.50;;;4.20;;
6537;SDS011;3302;52.508;13.454;2023-06-10T03:03:40;6.27;;;4.40;;
6537;SDS011;3302;52.508;13.454;2023-06-10T03:06:09;7.80;;;4.10;;
6537;SDS011;3302;52.508;13.454;2023-06-10T03:08:36;7.77;;;4.77;;
6537;SDS011;3302;52.508;13.454;2023-06-10T03:11:02;5.83;;;3.77;;
6537;SDS011;3302;52.508;13.454;2023-06-10T03:13:29;8.63;;;4.03;;
6537;SDS011;3302;52.508;13.454;2023-06-10T03:15:54;9.10;;;4.20;;
6537;SDS011;3302;52.508;13.454;2023-06-10T03:18:20;8.00;;;4.37;;
6537;SDS011;3302;52.508;13.454;2023-06-10T03:20:48;6.70;;;4.10;;
6537;SDS011;3302;52.508;13.454;2023-06-10T03:23:13;6.90;;;4.17;;
6537;SDS011;3302;52.508;13.454;2023-06-10T03:25:40;9.67;;;4.43;;
6537;SDS011;3302;52.508;13.454;2023-06-10T03:28:06;6.67;;;3.90;;
6537;SDS011;3302;52.508;13.454;2023-06-10T03:30:32;8.40;;;4.97;;
6537;SDS011;3302;52.508;13.454;2023-06-10T03:32:58;8.33;;;4.37;;
6537;SDS011;3302;52.508;13.454;2023-06-10T03:35:23;8.03;;;4.30;;
6537;SDS011;3302;52.508;13.454;2023-06-10T03:37:49;7.83;;;4.37;;
6537;SDS011;3302;52.508;13.454;2023-06-10T03:40:15;9.93;;;5.30;;
6537;SDS011;3302;52.508;13.454;2023-06-10T03:42:41;7.93;;;4.90;;
6537;SDS011;3302;52.508;13.454;2023-06-10T03:45:07;7.63;;;4.60;;
6537;SDS011;3302;52.508;13.454;2023-06-10T03:47:34;7.43;;;4.17;;
6537;SDS011;3302;52.508;13.454;2023-06-10T03:50:01;8.23;;;4.53;;
6537;SDS011;3302;52.508;13.454;2023-06-10T03:52:30;7.90;;;4.87;;
6537;SDS011;3302;52.508;13.454;2023-06-10T03:54:56;6.33;;;4.20;;
6537;SDS011;3302;52.508;13.454;2023-06-10T03:57:22;6.80;;;4.10;;
6537;SDS011;3302;52.508;13.454;2023-06-10T03:59:47;7.70;;;4.07;;
6537;SDS011;3302;52.508;13.454;2023-06-10T04:02:13;8.53;;;4.23;;
6537;SDS011;3302;52.508;13.454;2023-06-10T04:04:39;8.70;;;5.00;;
6537;SDS011;3302;52.508;13.454;2023-06-10T04:07:04;8.40;;;4.50;;
6537;SDS011;3302;52.508;13.454;2023-06-10T04:09:31;8.47;;;4.60;;
6537;SDS011;3302;52.508;13.454;2023-06-10T04:11:57;8.00;;;4.83;;
6537;SDS011;3302;52.508;13.454;2023-06-10T04:14:23;9.80;;;4.43;;
6537;SDS011;3302;52.508;13.454;2023-06-10T04:16:49;8.97;;;4.40;;
6537;SDS011;3302;52.508;13.454;2023-06-10T04:19:15;6.37;;;4.07;;
6537;SDS011;3302;52.508;13.454;2023-06-10T04:21:41;8.93;;;4.90;;
6537;SDS011;3302;52.508;13.454;2023-06-10T04:24:07;7.53;;;4.30;;
6537;SDS011;3302;52.508;13.454;2023-06-10T04:26:34;8.57;;;4.97;;
6537;SDS011;3302;52.508;13.454;2023-06-10T04:29:01;9.03;;;4.60;;
6537;SDS011;3302;52.508;13.454;2023-06-10T04:31:27;8.07;;;4.73;;
6537;SDS011;3302;52.508;13.454;2023-06-10T04:33:53;10.93;;;5.00;;
6537;SDS011;3302;52.508;13.454;2023-06-10T04:36:19;7.43;;;5.20;;
6537;SDS011;3302;52.508;13.454;2023-06-10T04:38:46;7.20;;;4.47;;
6537;SDS011;3302;52.508;13.454;2023-06-10T04:41:12;7.30;;;4.47;;
6537;SDS011;3302;52.508;13.454;2023-06-10T04:43:38;8.67;;;4.30;;
6537;SDS011;3302;52.508;13.454;2023-06-10T04:46:04;9.67;;;5.53;;
6537;SDS011;3302;52.508;13.454;2023-06-10T04:48:30;9.50;;;5.33;;
6537;SDS011;3302;52.508;13.454;2023-06-10T04:50:55;9.40;;;4.70;;
6537;SDS011;3302;52.508;13.454;2023-06-10T04:53:22;6.83;;;4.10;;
6537;SDS011;3302;52.508;13.454;2023-06-10T04:55:47;7.30;;;4.97;;
6537;SDS011;3302;52.508;13.454;2023-06-10T04:58:14;8.23;;;4.73;;
6537;SDS011;3302;52.508;13.454;2023-06-10T05:00:40;9.03;;;5.23;;
6537;SDS011;3302;52.508;13.454;2023-06-10T05:03:06;10.03;;;4.83;;
6537;SDS011;3302;52.508;13.454;2023-06-10T05:05:32;9.47;;;5.07;;
6537;SDS011;3302;52.508;13.454;2023-06-10T05:07:58;8.87;;;4.47;;
6537;SDS011;3302;52.508;13.454;2023-06-10T05:10:24;8.73;;;6.03;;
6537;SDS011;3302;52.508;13.454;2023-06-10T05:12:50;7.67;;;4.73;;
6537;SDS011;3302;52.508;13.454;2023-06-10T05:15:15;8.17;;;4.77;;
6537;SDS011;3302;52.508;13.454;2023-06-10T05:17:41;6.60;;;4.40;;
6537;SDS011;3302;52.508;13.454;2023-06-10T05:20:07;8.03;;;4.73;;
6537;SDS011;3302;52.508;13.454;2023-06-10T05:22:33;6.70;;;4.63;;
6537;SDS011;3302;52.508;13.454;2023-06-10T05:24:59;8.63;;;5.03;;
6537;SDS011;3302;52.508;13.454;2023-06-10T05:27:25;6.53;;;4.50;;
6537;SDS011;3302;52.508;13.454;2023-06-10T05:29:51;9.00;;;4.90;;
6537;SDS011;3302;52.508;13.454;2023-06-10T05:32:17;7.63;;;5.13;;
6537;SDS011;3302;52.508;13.454;2023-06-10T05:34:43;7.87;;;4.97;;
6537;SDS011;3302;52.508;13.454;2023-06-10T05:37:09;6.53;;;4.70;;
6537;SDS011;3302;52.508;13.454;2023-06-10T05:39:35;9.37;;;5.40;;
6537;SDS011;3302;52.508;13.454;2023-06-10T05:42:05;7.80;;;4.63;;
6537;SDS011;3302;52.508;13.454;2023-06-10T05:44:32;7.90;;;4.97;;
6537;SDS011;3302;52.508;13.454;2023-06-10T05:46:58;9.10;;;4.90;;
6537;SDS011;3302;52.508;13.454;2023-06-10T05:49:24;9.17;;;5.30;;
6537;SDS011;3302;52.508;13.454;2023-06-10T05:51:50;10.27;;;4.60;;
6537;SDS011;3302;52.508;13.454;2023-06-10T05:54:17;7.37;;;4.80;;
6537;SDS011;3302;52.508;13.454;2023-06-10T05:56:43;10.53;;;4.97;;
6537;SDS011;3302;52.508;13.454;2023-06-10T05:59:09;7.77;;;4.83;;
6537;SDS011;3302;52.508;13.454;2023-06-10T06:01:35;7.10;;;4.53;;
6537;SDS011;3302;52.508;13.454;2023-06-10T06:04:01;7.63;;;5.00;;
6537;SDS011;3302;52.508;13.454;2023-06-10T06:06:27;6.33;;;4.83;;
6537;SDS011;3302;52.508;13.454;2023-06-10T06:08:53;8.40;;;5.07;;
6537;SDS011;3302;52.508;13.454;2023-06-10T06:11:19;12.17;;;5.27;;
6537;SDS011;3302;52.508;13.454;2023-06-10T06:13:44;7.30;;;5.00;;
6537;SDS011;3302;52.508;13.454;2023-06-10T06:16:10;6.03;;;4.90;;
6537;SDS011;3302;52.508;13.454;2023-06-10T06:18:36;8.27;;;5.07;;
6537;SDS011;3302;52.508;13.454;2023-06-10T06:21:02;9.70;;;6.23;;
6537;SDS011;3302;52.508;13.454;2023-06-10T06:23:27;7.90;;;5.50;;
6537;SDS011;3302;52.508;13.454;2023-06-10T06:25:53;6.60;;;5.10;;
6537;SDS011;3302;52.508;13.454;2023-06-10T06:28:19;9.87;;;5.43;;
6537;SDS011;3302;52.508;13.454;2023-06-10T06:30:46;7.47;;;5.03;;
6537;SDS011;3302;52.508;13.454;2023-06-10T06:33:12;10.43;;;5.63;;
6537;SDS011;3302;52.508;13.454;2023-06-10T06:35:38;8.70;;;5.17;;
6537;SDS011;3302;52.508;13.454;2023-06-10T06:38:04;7.83;;;4.70;;
6537;SDS011;3302;52.508;13.454;2023-06-10T06:40:30;7.03;;;4.80;;
6537;SDS011;3302;52.508;13.454;2023-06-10T06:42:55;9.13;;;5.40;;
6537;SDS011;3302;52.508;13.454;2023-06-10T06:45:21;8.13;;;5.27;;
6537;SDS011;3302;52.508;13.454;2023-06-10T06:47:47;9.33;;;5.43;;
6537;SDS011;3302;52.508;13.454;2023-06-10T06:50:13;6.70;;;5.70;;
6537;SDS011;3302;52.508;13.454;2023-06-10T06:52:39;7.03;;;5.00;;
6537;SDS011;3302;52.508;13.454;2023-06-10T06:55:05;7.27;;;5.10;;
6537;SDS011;3302;52.508;13.454;2023-06-10T06:57:31;8.63;;;5.47;;
6537;SDS011;3302;52.508;13.454;2023-06-10T06:59:57;9.00;;;4.93;;
6537;SDS011;3302;52.508;13.454;2023-06-10T07:02:22;6.90;;;5.27;;
6537;SDS011;3302;52.508;13.454;2023-06-10T07:04:48;8.83;;;5.13;;
6537;SDS011;3302;52.508;13.454;2023-06-10T07:07:14;7.67;;;5.40;;
6537;SDS011;3302;52.508;13.454;2023-06-10T07:09:40;8.07;;;5.47;;
6537;SDS011;3302;52.508;13.454;2023-06-10T07:12:07;7.63;;;5.27;;
6537;SDS011;3302;52.508;13.454;2023-06-10T07:14:33;8.77;;;4.90;;
6537;SDS011;3302;52.508;13.454;2023-06-10T07:16:59;9.87;;;5.30;;
6537;SDS011;3302;52.508;13.454;2023-06-10T07:19:24;9.60;;;5.33;;
6537;SDS011;3302;52.508;13.454;2023-06-10T07:21:50;11.00;;;5.73;;
6537;SDS011;3302;52.508;13.454;2023-06-10T07:24:16;10.70;;;5.47;;
6537;SDS011;3302;52.508;13.454;2023-06-10T07:26:42;7.93;;;5.03;;
6537;SDS011;3302;52.508;13.454;2023-06-10T07:29:08;7.80;;;5.63;;
6537;SDS011;3302;52.508;13.454;2023-06-10T07:31:33;9.30;;;6.07;;
6537;SDS011;3302;52.508;13.454;2023-06-10T07:33:59;12.20;;;5.50;;
6537;SDS011;3302;52.508;13.454;2023-06-10T07:36:25;7.87;;;5.10;;
6537;SDS011;3302;52.508;13.454;2023-06-10T07:38:54;8.53;;;6.30;;
6537;SDS011;3302;52.508;13.454;2023-06-10T07:41:20;8.70;;;5.17;;
6537;SDS011;3302;52.508;13.454;2023-06-10T07:43:45;6.47;;;5.63;;
6537;SDS011;3302;52.508;13.454;2023-06-10T07:46:11;8.67;;;6.13;;
6537;SDS011;3302;52.508;13.454;2023-06-10T07:48:37;7.60;;;5.10;;
6537;SDS011;3302;52.508;13.454;2023-06-10T07:51:03;7.67;;;5.50;;
6537;SDS011;3302;52.508;13.454;2023-06-10T07:53:29;10.27;;;5.20;;
6537;SDS011;3302;52.508;13.454;2023-06-10T07:55:54;8.43;;;5.53;;
6537;SDS011;3302;52.508;13.454;2023-06-10T07:58:20;9.97;;;5.17;;
6537;SDS011;3302;52.508;13.454;2023-06-10T08:00:47;6.90;;;5.07;;
6537;SDS011;3302;52.508;13.454;2023-06-10T08:03:13;7.27;;;5.20;;
6537;SDS011;3302;52.508;13.454;2023-06-10T08:05:39;6.80;;;4.87;;
6537;SDS011;3302;52.508;13.454;2023-06-10T08:08:05;7.57;;;5.83;;
6537;SDS011;3302;52.508;13.454;2023-06-10T08:10:31;8.77;;;5.33;;
6537;SDS011;3302;52.508;13.454;2023-06-10T08:12:56;10.40;;;6.00;;
6537;SDS011;3302;52.508;13.454;2023-06-10T08:15:22;7.63;;;5.03;;
6537;SDS011;3302;52.508;13.454;2023-06-10T08:17:48;6.43;;;5.23;;
6537;SDS011;3302;52.508;13.454;2023-06-10T08:20:14;7.53;;;4.87;;
6537;SDS011;3302;52.508;13.454;2023-06-10T08:22:39;10.13;;;5.60;;
6537;SDS011;3302;52.508;13.454;2023-06-10T08:25:05;8.48;;;6.20;;
6537;SDS011;3302;52.508;13.454;2023-06-10T08:27:31;7.77;;;5.53;;
6537;SDS011;3302;52.508;13.454;2023-06-10T08:29:57;9.33;;;5.57;;
6537;SDS011;3302;52.508;13.454;2023-06-10T08:32:25;10.50;;;5.57;;
6537;SDS011;3302;52.508;13.454;2023-06-10T08:34:51;8.20;;;5.80;;
6537;SDS011;3302;52.508;13.454;2023-06-10T08:37:17;7.83;;;5.40;;
6537;SDS011;3302;52.508;13.454;2023-06-10T08:39:43;9.50;;;6.10;;
6537;SDS011;3302;52.508;13.454;2023-06-10T08:44:58;6.63;;;5.43;;
6537;SDS011;3302;52.508;13.454;2023-06-10T08:47:26;7.27;;;5.83;;
6537;SDS011;3302;52.508;13.454;2023-06-10T08:49:56;6.77;;;5.70;;
6537;SDS011;3302;52.508;13.454;2023-06-10T08:52:28;7.27;;;5.30;;
6537;SDS011;3302;52.508;13.454;2023-06-10T08:55:02;6.45;;;5.65;;
6537;SDS011;3302;52.508;13.454;2023-06-10T08:57:40;8.27;;;5.80;;
6537;SDS011;3302;52.508;13.454;2023-06-10T09:00:07;7.25;;;5.55;;
6537;SDS011;3302;52.508;13.454;2023-06-10T09:02:33;7.18;;;5.78;;
6537;SDS011;3302;52.508;13.454;2023-06-10T09:05:00;7.17;;;5.60;;
6537;SDS011;3302;52.508;13.454;2023-06-10T09:07:27;7.43;;;5.27;;
6537;SDS011;3302;52.508;13.454;2023-06-10T09:09:56;6.85;;;5.35;;
6537;SDS011;3302;52.508;13.454;2023-06-10T09:12:25;6.80;;;5.40;;
6537;SDS011;3302;52.508;13.454;2023-06-10T09:14:50;9.23;;;5.60;;
6537;SDS011;3302;52.508;13.454;2023-06-10T09:17:16;10.10;;;5.65;;
6537;SDS011;3302;52.508;13.454;2023-06-10T09:19:43;7.07;;;5.32;;
6537;SDS011;3302;52.508;13.454;2023-06-10T09:22:10;7.47;;;5.40;;
6537;SDS011;3302;52.508;13.454;2023-06-10T09:24:37;8.85;;;5.40;;
6537;SDS011;3302;52.508;13.454;2023-06-10T09:27:04;9.95;;;6.03;;
6537;SDS011;3302;52.508;13.454;2023-06-10T09:29:32;6.97;;;5.10;;
6537;SDS011;3302;52.508;13.454;2023-06-10T09:32:21;8.97;;;5.10;;
6537;SDS011;3302;52.508;13.454;2023-06-10T09:34:47;9.77;;;5.50;;
6537;SDS011;3302;52.508;13.454;2023-06-10T09:37:19;8.93;;;5.33;;
6537;SDS011;3302;52.508;13.454;2023-06-10T09:40:00;7.40;;;5.18;;
6537;SDS011;3302;52.508;13.454;2023-06-10T09:42:33;8.55;;;5.30;;
6537;SDS011;3302;52.508;13.454;2023-06-10T09:45:01;8.20;;;5.70;;
6537;SDS011;3302;52.508;13.454;2023-06-10T09:47:28;6.13;;;5.38;;
6537;SDS011;3302;52.508;13.454;2023-06-10T09:49:54;10.25;;;5.13;;
6537;SDS011;3302;52.508;13.454;2023-06-10T09:52:23;9.93;;;5.87;;
6537;SDS011;3302;52.508;13.454;2023-06-10T09:54:53;8.25;;;5.05;;
6537;SDS011;3302;52.508;13.454;2023-06-10T09:57:20;7.80;;;5.03;;
6537;SDS011;3302;52.508;13.454;2023-06-10T09:59:46;8.00;;;5.28;;
6537;SDS011;3302;52.508;13.454;2023-06-10T10:02:13;11.40;;;5.97;;
6537;SDS011;3302;52.508;13.454;2023-06-10T10:04:42;7.27;;;4.87;;
6537;SDS011;3302;52.508;13.454;2023-06-10T10:07:11;10.40;;;5.80;;
6537;SDS011;3302;52.508;13.454;2023-06-10T10:09:38;10.13;;;5.70;;
6537;SDS011;3302;52.508;13.454;2023-06-10T10:12:09;10.73;;;5.82;;
6537;SDS011;3302;52.508;13.454;2023-06-10T10:14:40;7.57;;;5.27;;
6537;SDS011;3302;52.508;13.454;2023-06-10T10:17:11;5.82;;;5.22;;
6537;SDS011;3302;52.508;13.454;2023-06-10T10:19:46;6.07;;;5.40;;
6537;SDS011;3302;52.508;13.454;2023-06-10T10:22:19;8.70;;;5.22;;
6537;SDS011;3302;52.508;13.454;2023-06-10T10:24:51;6.00;;;4.10;;
6537;SDS011;3302;52.508;13.454;2023-06-10T10:27:28;6.10;;;4.43;;
6537;SDS011;3302;52.508;13.454;2023-06-10T10:29:58;5.95;;;4.25;;
6537;SDS011;3302;52.508;13.454;2023-06-10T10:32:43;4.80;;;4.40;;
6537;SDS011;3302;52.508;13.454;2023-06-10T10:35:30;4.67;;;4.17;;
6537;SDS011;3302;52.508;13.454;2023-06-10T10:37:58;5.87;;;3.80;;
6537;SDS011;3302;52.508;13.454;2023-06-10T10:40:26;5.43;;;3.95;;
6537;SDS011;3302;52.508;13.454;2023-06-10T10:42:55;4.32;;;3.80;;
6537;SDS011;3302;52.508;13.454;2023-06-10T10:45:22;4.00;;;3.33;;
6537;SDS011;3302;52.508;13.454;2023-06-10T10:47:52;3.50;;;3.20;;
6537;SDS011;3302;52.508;13.454;2023-06-10T10:50:19;4.72;;;3.50;;
6537;SDS011;3302;52.508;13.454;2023-06-10T10:52:48;3.63;;;3.33;;
6537;SDS011;3302;52.508;13.454;2023-06-10T10:55:21;3.67;;;3.38;;
6537;SDS011;3302;52.508;13.454;2023-06-10T11:00:34;5.32;;;3.30;;
6537;SDS011;3302;52.508;13.454;2023-06-10T11:08:00;3.85;;;3.55;;
6537;SDS011;3302;52.508;13.454;2023-06-10T11:10:32;4.47;;;3.50;;
6537;SDS011;3302;52.508;13.454;2023-06-10T11:13:06;4.05;;;3.55;;
6537;SDS011;3302;52.508;13.454;2023-06-10T11:15:33;5.07;;;3.93;;
6537;SDS011;3302;52.508;13.454;2023-06-10T11:18:12;4.65;;;3.50;;
6537;SDS011;3302;52.508;13.454;2023-06-10T11:31:18;4.50;;;3.88;;
6537;SDS011;3302;52.508;13.454;2023-06-10T11:33:46;6.80;;;4.00;;
6537;SDS011;3302;52.508;13.454;2023-06-10T11:36:13;4.30;;;3.80;;
6537;SDS011;3302;52.508;13.454;2023-06-10T11:38:40;5.82;;;3.80;;
6537;SDS011;3302;52.508;13.454;2023-06-10T11:41:06;4.15;;;3.75;;
6537;SDS011;3302;52.508;13.454;2023-06-10T11:43:32;4.47;;;3.63;;
6537;SDS011;3302;52.508;13.454;2023-06-10T11:45:59;4.70;;;4.25;;
6537;SDS011;3302;52.508;13.454;2023-06-10T11:48:25;4.25;;;3.80;;
6537;SDS011;3302;52.508;13.454;2023-06-10T11:50:53;4.55;;;3.75;;
6537;SDS011;3302;52.508;13.454;2023-06-10T11:53:19;5.70;;;5.20;;
6537;SDS011;3302;52.508;13.454;2023-06-10T11:55:46;6.78;;;4.30;;
6537;SDS011;3302;52.508;13.454;2023-06-10T11:58:14;4.72;;;4.30;;
6537;SDS011;3302;52.508;13.454;2023-06-10T12:00:48;4.25;;;3.83;;
6537;SDS011;3302;52.508;13.454;2023-06-10T12:03:24;6.60;;;5.88;;
6537;SDS011;3302;52.508;13.454;2023-06-10T12:05:59;5.43;;;4.40;;
6537;SDS011;3302;52.508;13.454;2023-06-10T12:08:26;4.30;;;3.90;;
6537;SDS011;3302;52.508;13.454;2023-06-10T12:10:53;11.95;;;4.35;;
6537;SDS011;3302;52.508;13.454;2023-06-10T12:13:19;4.30;;;3.90;;
6537;SDS011;3302;52.508;13.454;2023-06-10T12:15:48;6.13;;;4.18;;
6537;SDS011;3302;52.508;13.454;2023-06-10T12:18:17;4.43;;;4.03;;
6537;SDS011;3302;52.508;13.454;2023-06-10T12:20:44;4.90;;;4.50;;
6537;SDS011;3302;52.508;13.454;2023-06-10T12:23:10;6.47;;;5.55;;
6537;SDS011;3302;52.508;13.454;2023-06-10T12:25:36;5.40;;;4.82;;
6537;SDS011;3302;52.508;13.454;2023-06-10T12:28:03;5.90;;;4.90;;
6537;SDS011;3302;52.508;13.454;2023-06-10T12:30:31;5.25;;;4.68;;
6537;SDS011;3302;52.508;13.454;2023-06-10T12:32:57;4.95;;;4.47;;
6537;SDS011;3302;52.508;13.454;2023-06-10T12:35:24;5.25;;;4.80;;
6537;SDS011;3302;52.508;13.454;2023-06-10T12:37:58;5.63;;;4.65;;
6537;SDS011;3302;52.508;13.454;2023-06-10T12:40:38;8.05;;;5.38;;
6537;SDS011;3302;52.508;13.454;2023-06-10T12:43:08;6.30;;;5.40;;
6537;SDS011;3302;52.508;13.454;2023-06-10T12:45:36;5.60;;;5.13;;
6537;SDS011;3302;52.508;13.454;2023-06-10T12:50:52;7.72;;;5.70;;
6537;SDS011;3302;52.508;13.454;2023-06-10T12:53:22;6.05;;;5.47;;
6537;SDS011;3302;52.508;13.454;2023-06-10T12:55:49;6.93;;;6.15;;
6537;SDS011;3302;52.508;13.454;2023-06-10T12:58:16;6.25;;;5.65;;
6537;SDS011;3302;52.508;13.454;2023-06-10T13:00:42;6.55;;;5.45;;
6537;SDS011;3302;52.508;13.454;2023-06-10T13:03:08;9.48;;;6.10;;
6537;SDS011;3302;52.508;13.454;2023-06-10T13:05:35;7.78;;;5.63;;
6537;SDS011;3302;52.508;13.454;2023-06-10T13:08:05;7.00;;;5.60;;
6537;SDS011;3302;52.508;13.454;2023-06-10T13:10:32;7.57;;;5.63;;
6537;SDS011;3302;52.508;13.454;2023-06-10T13:12:59;7.32;;;6.13;;
6537;SDS011;3302;52.508;13.454;2023-06-10T13:15:26;5.95;;;5.45;;
6537;SDS011;3302;52.508;13.454;2023-06-10T13:17:52;6.22;;;5.63;;
6537;SDS011;3302;52.508;13.454;2023-06-10T13:20:18;6.25;;;5.63;;
6537;SDS011;3302;52.508;13.454;2023-06-10T13:22:45;6.15;;;5.55;;
6537;SDS011;3302;52.508;13.454;2023-06-10T13:25:12;6.50;;;5.85;;
6537;SDS011;3302;52.508;13.454;2023-06-10T13:27:38;6.30;;;5.63;;
6537;SDS011;3302;52.508;13.454;2023-06-10T13:30:05;5.82;;;5.32;;
6537;SDS011;3302;52.508;13.454;2023-06-10T13:32:31;6.55;;;4.85;;
6537;SDS011;3302;52.508;13.454;2023-06-10T13:34:57;6.32;;;5.45;;
6537;SDS011;3302;52.508;13.454;2023-06-10T13:37:23;6.72;;;5.30;;
6537;SDS011;3302;52.508;13.454;2023-06-10T13:39:49;6.03;;;5.22;;
6537;SDS011;3302;52.508;13.454;2023-06-10T13:42:16;6.10;;;5.22;;
6537;SDS011;3302;52.508;13.454;2023-06-10T13:44:43;6.13;;;5.53;;
6537;SDS011;3302;52.508;13.454;2023-06-10T13:47:09;8.95;;;5.72;;
6537;SDS011;3302;52.508;13.454;2023-06-10T13:49:34;6.25;;;5.65;;
6537;SDS011;3302;52.508;13.454;2023-06-10T13:52:01;7.15;;;5.72;;
6537;SDS011;3302;52.508;13.454;2023-06-10T13:54:27;7.68;;;5.32;;
6537;SDS011;3302;52.508;13.454;2023-06-10T13:56:53;7.53;;;5.43;;
6537;SDS011;3302;52.508;13.454;2023-06-10T13:59:19;5.90;;;5.40;;
6537;SDS011;3302;52.508;13.454;2023-06-10T14:01:45;5.57;;;4.78;;
6537;SDS011;3302;52.508;13.454;2023-06-10T14:04:11;8.57;;;5.28;;
6537;SDS011;3302;52.508;13.454;2023-06-10T14:06:37;9.75;;;5.28;;
6537;SDS011;3302;52.508;13.454;2023-06-10T14:09:03;7.43;;;4.88;;
6537;SDS011;3302;52.508;13.454;2023-06-10T14:11:29;6.78;;;5.28;;
6537;SDS011;3302;52.508;13.454;2023-06-10T14:13:56;6.80;;;4.82;;
6537;SDS011;3302;52.508;13.454;2023-06-10T14:16:23;6.60;;;4.93;;
6537;SDS011;3302;52.508;13.454;2023-06-10T14:18:49;5.28;;;4.78;;
6537;SDS011;3302;52.508;13.454;2023-06-10T14:21:16;6.97;;;4.80;;
6537;SDS011;3302;52.508;13.454;2023-06-10T14:23:42;6.30;;;5.30;;
6537;SDS011;3302;52.508;13.454;2023-06-10T14:26:11;6.90;;;4.85;;
6537;SDS011;3302;52.508;13.454;2023-06-10T14:28:37;5.53;;;4.78;;
6537;SDS011;3302;52.508;13.454;2023-06-10T14:31:03;5.93;;;5.00;;
6537;SDS011;3302;52.508;13.454;2023-06-10T14:33:29;6.68;;;4.70;;
6537;SDS011;3302;52.508;13.454;2023-06-10T14:35:56;5.28;;;4.70;;
6537;SDS011;3302;52.508;13.454;2023-06-10T14:38:22;4.75;;;4.25;;
6537;SDS011;3302;52.508;13.454;2023-06-10T14:40:48;5.10;;;4.50;;
6537;SDS011;3302;52.508;13.454;2023-06-10T14:43:14;5.88;;;4.57;;
6537;SDS011;3302;52.508;13.454;2023-06-10T14:45:40;5.10;;;4.60;;
6537;SDS011;3302;52.508;13.454;2023-06-10T14:48:06;5.97;;;5.20;;
6537;SDS011;3302;52.508;13.454;2023-06-10T14:50:35;6.72;;;4.47;;
6537;SDS011;3302;52.508;13.454;2023-06-10T14:53:01;7.32;;;4.50;;
6537;SDS011;3302;52.508;13.454;2023-06-10T14:55:27;6.63;;;4.85;;
6537;SDS011;3302;52.508;13.454;2023-06-10T14:57:53;6.80;;;4.50;;
6537;SDS011;3302;52.508;13.454;2023-06-10T15:00:20;5.35;;;4.75;;
6537;SDS011;3302;52.508;13.454;2023-06-10T15:02:48;5.32;;;4.50;;
6537;SDS011;3302;52.508;13.454;2023-06-10T15:05:14;8.20;;;4.55;;
6537;SDS011;3302;52.508;13.454;2023-06-10T15:07:41;6.18;;;4.75;;
6537;SDS011;3302;52.508;13.454;2023-06-10T15:10:07;5.43;;;4.93;;
6537;SDS011;3302;52.508;13.454;2023-06-10T15:12:33;6.53;;;4.78;;
6537;SDS011;3302;52.508;13.454;2023-06-10T15:14:59;7.30;;;4.88;;
6537;SDS011;3302;52.508;13.454;2023-06-10T15:17:25;5.50;;;4.30;;
6537;SDS011;3302;52.508;13.454;2023-06-10T15:19:51;5.70;;;4.90;;
6537;SDS011;3302;52.508;13.454;2023-06-10T15:22:17;5.20;;;4.47;;
6537;SDS011;3302;52.508;13.454;2023-06-10T15:24:43;5.78;;;4.35;;
6537;SDS011;3302;52.508;13.454;2023-06-10T15:27:08;7.70;;;4.20;;
6537;SDS011;3302;52.508;13.454;2023-06-10T15:29:35;5.95;;;4.47;;